Laranjeiras do Sul, Brazil
Current Conditions -  °F | °C
As of 2:00 PM on Saturday 22 Nov 2014 (Local Time) from SBCH Reporting Station
Broken Clouds Broken Clouds  
Wind Chill: 72°   Ceiling: 1000
Heat Index: 72°   Visibility: 6mi
Dew Point: 66°   Wind: 7mph
Humidity: 83%   Direction: 310°NW
Pressure: 29.94"   Gusts: NA
Location:  25.41°S, 52.42°W
Report Text: SBCH 221600Z 31006KT 9999 BKN010 BKN025 22/19 Q1014
Loading
Personal Weather Stations






























Interactive Weather Map New forecast layout! Learn more

10-Day Weather Forecast

Advertisements
Track Severe Weather on mobile